美保飛行場の過去48時間の天気

美保飛行場 (Miho)

現在時刻: 6/3 20:58 JST (6/3 11:58 UTC) 以下の時間は現地時間です。

過去48時間のMETAR気象情報
時間 風向 風速(m/s) 視程 気温(℃) 湿度(%) 気圧(hPa) 天気現象
3 20:00 3 10km以上 21 83 1004
3 19:00 4 10km以上 21 83 1004
3 18:00 2 10km以上 24 65 1003
3 17:00 東北東 3 10km以上 25 61 1003
3 16:00 東北東 3 10km以上 25 61 1004
3 15:00 3 10km以上 26 61 1004
3 14:00 東北東 2 10km以上 26 54 1004
3 13:00 西南西 2 10km以上 27 51 1005
3 12:00 西 2 10km以上 26 48 1005
3 11:00 不定 1 10km以上 25 50 1005
3 10:00 西 2 10km以上 24 57 1005
3 09:00 西 3 10km以上 23 61 1006
3 08:00 2 10km以上 21 64 1006
3 07:00 2 10km以上 19 83 1006
3 06:00 不定 1 10km以上 17 83 1006
3 05:00 4 10km以上 16 94 1005
3 04:00 南南東 2 10km以上 16 88 1006
3 03:00 3 10km以上 17 88 1006
3 02:00 3 10km以上 16 88 1006
3 01:00 南西 2 10km以上 18 88 1006
3 00:00 不定 1 10km以上 18 88 1006
2 23:00 南南西 2 10km以上 17 88 1006
2 22:00 東南東 2 10km以上 19 88 1007
2 21:00 1 10km以上 20 78 1007
2 20:00 西 3 10km以上 22 60 1006
2 19:00 西 4 10km以上 22 65 1007
2 18:00 西 4 10km以上 24 47 1007
2 17:00 西 5 10km以上 25 50 1007
2 16:00 北西 4 10km以上 26 45 1007
2 15:00 北西 4 10km以上 27 48 1007
2 14:00 西北西 4 10km以上 28 42 1007
2 13:00 西 5 10km以上 28 32 1007
2 12:00 西 5 10km以上 27 42 1007
2 11:00 西 6 10km以上 27 45 1008
2 10:00 西 6 10km以上 25 54 1009
2 09:00 西南西 5 10km以上 24 57 1009
2 08:00 南西 2 10km以上 21 78 1009
2 07:00 2 10km以上 19 88 1009
2 06:00 南南西 3 10km以上 19 94 1009
2 05:00 南南東 2 10km以上 17 100 1008
RJOH 031100Z 08006KT 9999 FEW050 BKN250 21/18 Q1004
RJOH 031000Z 08008KT 9999 FEW040 SCT050 BKN250 21/18 Q1004
RJOH 030900Z 09004KT 050V120 9999 FEW050 SCT060 BKN250 24/17 Q1003
RJOH 030800Z 06005KT 040V110 9999 FEW180 BKN250 25/17 Q1003
RJOH 030700Z 07006KT 9999 FEW050 BKN250 25/17 Q1004
RJOH 030600Z 08005KT 040V120 9999 FEW050 BKN250 26/18 Q1004
RJOH 030500Z 07003KT 010V120 9999 FEW050 BKN250 26/16 Q1004
RJOH 030400Z 24004KT 190V280 9999 FEW050 BKN250 27/16 Q1005
RJOH 030300Z 26003KT 220V360 9999 FEW050 BKN230 26/14 Q1005
RJOH 030200Z VRB02KT 9999 FEW050 BKN230 25/14 Q1005
RJOH 030100Z 26003KT 230V330 9999 FEW050 BKN230 24/15 Q1005
RJOH 030000Z 27005KT 240V300 9999 FEW100 BKN250 23/15 Q1006
RJOH 022300Z 19004KT 9999 FEW100 BKN250 21/14 Q1006
RJOH 022200Z 17003KT 130V190 9999 FEW100 BKN250 19/16 Q1006
RJOH 022100Z VRB01KT 9999 FEW100 17/14 Q1006
RJOH 022000Z 19008KT 9999 FEW100 16/15 Q1005
RJOH 021900Z 16004KT 9999 FEW100 BKN/// 16/14 Q1006
RJOH 021800Z 18005KT 9999 FEW150 BKN/// 17/15 Q1006
RJOH 021700Z 17005KT 9999 FEW150 BKN/// 16/14 Q1006
RJOH 021600Z 23004KT 9999 FEW150 BKN/// 18/16 Q1006
RJOH 021500Z VRB01KT 9999 FEW150 BKN/// 18/16 Q1006
RJOH 021400Z 20004KT 9999 FEW150 BKN/// 17/15 Q1006
RJOH 021300Z 12004KT 9999 FEW160 BKN/// 19/17 Q1007
RJOH 021200Z 10002KT 9999 FEW050 BKN/// 20/16 Q1007
RJOH 021100Z 27006KT 9999 FEW050 BKN/// 22/14 Q1006
RJOH 021000Z 28007KT 9999 FEW050 SCT170 BKN250 22/15 Q1007
RJOH 020900Z 28008KT 9999 FEW050 BKN250 24/12 Q1007
RJOH 020800Z 28009KT 9999 FEW050 BKN250 25/14 Q1007
RJOH 020700Z 31008KT 270V360 9999 FEW050 BKN250 26/13 Q1007
RJOH 020600Z 31008KT 260V350 9999 FEW035 BKN250 27/15 Q1007
RJOH 020500Z 29007KT 240V340 9999 FEW035 SCT250 28/14 Q1007
RJOH 020400Z 28009KT 250V320 9999 FEW035 28/10 Q1007
RJOH 020300Z 27010KT 9999 FEW035 SCT250 27/13 Q1007
RJOH 020200Z 27011KT 240V300 9999 FEW035 27/14 Q1008
RJOH 020100Z 27011KT 9999 FEW035 25/15 Q1009
RJOH 020000Z 25010KT 9999 FEW250 24/15 Q1009
RJOH 012300Z 22004KT 9999 FEW050 21/17 Q1009
RJOH 012200Z 19004KT 9999 FEW050 19/17 Q1009
RJOH 012100Z 21006KT 9999 FEW060 SCT250 19/18 Q1009
RJOH 012000Z 15004KT 9999 FEW006 SCT060 17/17 Q1008